createdAt,value
2022-10-01T00:03:03.064Z,9.75
2022-10-01T00:09:46.354Z,11.40
2022-10-01T00:16:30.814Z,7.40
2022-10-01T00:23:15.307Z,7.80
2022-10-01T00:29:57.688Z,7.40
2022-10-01T00:36:40.085Z,8.73
2022-10-01T00:43:25.898Z,8.10
2022-10-01T00:50:23.419Z,7.88
2022-10-01T00:57:07.328Z,7.75
2022-10-01T01:03:49.903Z,9.38
2022-10-01T01:11:03.885Z,9.15
2022-10-01T01:18:13.811Z,8.73
2022-10-01T01:25:19.320Z,8.50
2022-10-01T01:32:13.971Z,8.38
2022-10-01T01:39:04.092Z,7.85
2022-10-01T01:45:49.432Z,6.88
2022-10-01T01:52:33.406Z,6.82
2022-10-01T01:59:18.549Z,7.13
2022-10-01T02:06:19.213Z,6.45
2022-10-01T02:13:08.180Z,7.47
2022-10-01T02:20:10.183Z,8.57
2022-10-01T02:26:55.446Z,7.28
2022-10-01T02:33:38.814Z,9.82
2022-10-01T02:40:26.186Z,10.32
2022-10-01T02:47:20.600Z,61.67
2022-10-01T02:54:15.833Z,54.75
2022-10-01T03:00:58.186Z,12.18
2022-10-01T03:07:40.834Z,7.97
2022-10-01T03:14:24.543Z,5.47
2022-10-01T03:21:06.871Z,8.30
2022-10-01T03:27:49.516Z,6.40
2022-10-01T03:34:31.925Z,5.38
2022-10-01T03:41:14.256Z,6.38
2022-10-01T03:47:56.538Z,6.10
2022-10-01T03:54:39.291Z,8.48
2022-10-01T04:01:22.208Z,9.45
2022-10-01T04:08:04.824Z,7.82
2022-10-01T04:14:47.311Z,15.45
2022-10-01T04:21:30.003Z,30.08
2022-10-01T04:28:14.210Z,39.28
2022-10-01T04:34:56.780Z,35.38
2022-10-01T04:41:39.554Z,32.05
2022-10-01T04:48:22.073Z,21.10
2022-10-01T04:55:04.723Z,15.77
2022-10-01T05:01:47.192Z,10.43
2022-10-01T05:08:31.006Z,11.07
2022-10-01T05:15:13.926Z,7.18
2022-10-01T05:21:56.406Z,6.85
2022-10-01T05:28:44.191Z,11.05
2022-10-01T05:35:26.667Z,7.47
2022-10-01T05:42:08.975Z,8.63
2022-10-01T05:48:51.371Z,7.03
2022-10-01T05:55:34.873Z,5.60
2022-10-01T06:02:17.439Z,7.72
2022-10-01T06:08:59.862Z,6.50
2022-10-01T06:15:42.200Z,7.47
2022-10-01T06:22:24.518Z,7.03
2022-10-01T06:29:06.816Z,6.57
2022-10-01T06:35:51.644Z,3.35
2022-10-01T06:42:33.962Z,6.88
2022-10-01T06:49:20.363Z,3.92
2022-10-01T06:56:07.557Z,5.40
2022-10-01T07:02:50.053Z,6.25
2022-10-01T07:09:32.524Z,3.78
2022-10-01T07:16:15.863Z,6.22
2022-10-01T07:22:59.548Z,4.78
2022-10-01T07:29:42.430Z,5.15
2022-10-01T07:36:24.751Z,4.78
2022-10-01T07:43:08.079Z,3.97
2022-10-01T07:49:50.395Z,6.00
2022-10-01T07:56:32.674Z,2.40
2022-10-01T08:03:14.971Z,5.50
2022-10-01T08:09:57.639Z,4.10
2022-10-01T08:16:40.937Z,3.00
2022-10-01T08:23:23.578Z,2.63
2022-10-01T08:30:06.488Z,2.95
2022-10-01T08:36:51.934Z,4.07
2022-10-01T08:43:39.011Z,3.08
2022-10-01T08:50:47.038Z,3.35
2022-10-01T08:57:32.998Z,5.70
2022-10-01T09:04:15.631Z,5.72
2022-10-01T09:11:07.340Z,4.13
2022-10-01T09:17:53.127Z,4.90
2022-10-01T09:24:40.582Z,4.53
2022-10-01T09:31:42.927Z,3.25
2022-10-01T09:38:38.259Z,4.40
2022-10-01T09:45:22.493Z,3.70
2022-10-01T09:52:15.181Z,2.67
2022-10-01T09:59:01.793Z,4.95
2022-10-01T10:05:49.138Z,3.72
2022-10-01T10:12:31.649Z,4.45
2022-10-01T10:19:26.657Z,3.22
2022-10-01T10:26:21.753Z,1.90
2022-10-01T10:33:06.316Z,1.58
2022-10-01T10:39:51.674Z,3.38
2022-10-01T10:46:42.799Z,2.28
2022-10-01T10:53:30.011Z,2.22
2022-10-01T11:00:19.943Z,1.08
2022-10-01T11:07:02.927Z,1.20
2022-10-01T11:14:13.233Z,1.75
2022-10-01T11:21:14.744Z,1.00
2022-10-01T11:28:22.236Z,3.03
2022-10-01T11:35:10.551Z,2.17
2022-10-01T11:42:07.885Z,0.95
2022-10-01T11:49:03.311Z,1.42
2022-10-01T11:56:19.856Z,1.27
2022-10-01T12:03:05.130Z,1.73
2022-10-01T12:10:14.442Z,1.10
2022-10-01T12:17:04.942Z,1.13
2022-10-01T12:24:16.318Z,1.05
2022-10-01T12:31:10.905Z,1.40
2022-10-01T12:38:15.255Z,2.35
2022-10-01T12:45:26.220Z,1.73
2022-10-01T12:52:20.719Z,0.80
2022-10-01T12:59:27.588Z,1.40
2022-10-01T13:06:40.493Z,1.73
2022-10-01T13:13:32.861Z,1.92
2022-10-01T13:20:48.992Z,1.80
2022-10-01T13:27:39.896Z,1.95
2022-10-01T13:34:26.112Z,1.40
2022-10-01T13:41:25.862Z,1.33
2022-10-01T13:48:19.457Z,2.20
2022-10-01T13:55:02.334Z,1.58
2022-10-01T14:01:44.696Z,1.50
2022-10-01T14:09:00.528Z,3.00
2022-10-01T14:16:01.504Z,0.95
2022-10-01T14:23:02.056Z,1.75
2022-10-01T14:30:03.220Z,2.58
2022-10-01T14:36:50.154Z,2.15
2022-10-01T14:43:32.906Z,2.15
2022-10-01T14:50:20.630Z,1.20
2022-10-01T14:57:08.742Z,4.43
2022-10-01T15:03:53.667Z,1.70
2022-10-01T15:10:36.460Z,1.70
2022-10-01T15:17:29.735Z,1.05
2022-10-01T15:24:23.516Z,2.58
2022-10-01T15:31:10.653Z,3.13
2022-10-01T15:38:00.368Z,0.73
2022-10-01T15:44:48.681Z,1.02
2022-10-01T15:51:31.146Z,1.52
2022-10-01T15:58:19.499Z,1.90
2022-10-01T16:05:06.429Z,1.90
2022-10-01T16:11:53.913Z,1.75
2022-10-01T16:18:37.744Z,1.27
2022-10-01T16:25:23.204Z,3.85
2022-10-01T16:32:05.650Z,1.60
2022-10-01T16:38:48.322Z,5.75
2022-10-01T16:45:40.297Z,4.95
2022-10-01T16:52:23.370Z,1.23
2022-10-01T16:59:05.798Z,1.50
2022-10-01T17:05:50.044Z,0.73
2022-10-01T17:12:32.387Z,1.10
2022-10-01T17:19:14.958Z,1.90
2022-10-01T17:25:57.429Z,1.50
2022-10-01T17:32:42.901Z,1.85
2022-10-01T17:39:27.559Z,1.25
2022-10-01T17:46:10.037Z,2.10
2022-10-01T17:52:52.460Z,1.90
2022-10-01T17:59:34.855Z,2.75
2022-10-01T18:06:20.336Z,4.75
2022-10-01T18:13:03.286Z,1.38
2022-10-01T18:19:53.492Z,2.55
2022-10-01T18:26:36.613Z,2.95
2022-10-01T18:33:19.220Z,2.85
2022-10-01T18:40:15.382Z,2.13
2022-10-01T18:47:26.812Z,2.95
2022-10-01T18:54:34.559Z,3.83
2022-10-01T19:01:23.275Z,2.58
2022-10-01T19:08:38.068Z,3.90
2022-10-01T19:15:34.598Z,4.30
2022-10-01T19:22:51.170Z,3.25
2022-10-01T19:30:03.549Z,1.70
2022-10-01T19:37:01.820Z,5.80
2022-10-01T19:44:09.301Z,4.40
2022-10-01T19:51:02.665Z,4.55
2022-10-01T19:57:45.968Z,5.28
2022-10-01T20:04:38.351Z,3.65
2022-10-01T20:11:48.801Z,3.92
2022-10-01T20:18:56.933Z,4.53
2022-10-01T20:25:57.705Z,4.35
2022-10-01T20:33:17.080Z,5.22
2022-10-01T20:40:13.467Z,10.00
2022-10-01T20:47:03.519Z,8.40
2022-10-01T20:53:54.765Z,5.70
2022-10-01T21:00:38.511Z,6.82
2022-10-01T21:07:39.145Z,7.57
2022-10-01T21:14:33.956Z,4.10
2022-10-01T21:21:43.863Z,5.78
2022-10-01T21:29:01.926Z,8.02
2022-10-01T21:35:58.661Z,7.55
2022-10-01T21:43:01.669Z,4.68
2022-10-01T21:50:06.186Z,8.52
2022-10-01T21:57:07.247Z,7.75
2022-10-01T22:04:14.390Z,7.07
2022-10-01T22:11:07.273Z,6.13
2022-10-01T22:17:53.635Z,5.75
2022-10-01T22:24:41.476Z,9.27
2022-10-01T22:31:30.589Z,5.95
2022-10-01T22:38:38.827Z,10.27
2022-10-01T22:45:27.700Z,8.05
2022-10-01T22:52:31.221Z,8.35
2022-10-01T22:59:36.641Z,6.63
2022-10-01T23:06:52.691Z,7.82
2022-10-01T23:13:55.107Z,13.05
2022-10-01T23:20:57.404Z,8.02
2022-10-01T23:27:53.233Z,7.07
2022-10-01T23:35:04.872Z,7.30
2022-10-01T23:41:54.775Z,7.38
2022-10-01T23:48:49.969Z,5.40
2022-10-01T23:56:07.031Z,11.95
